createdAt,value
2018-02-23T00:01:32.765Z,6.10
2018-02-23T00:03:59.161Z,6.00
2018-02-23T00:06:25.529Z,6.12
2018-02-23T00:08:51.986Z,6.12
2018-02-23T00:11:18.387Z,6.23
2018-02-23T00:13:44.965Z,6.04
2018-02-23T00:16:11.451Z,5.96
2018-02-23T00:18:37.969Z,5.98
2018-02-23T00:21:04.414Z,5.96
2018-02-23T00:23:30.880Z,6.13
2018-02-23T00:25:57.310Z,6.16
2018-02-23T00:28:23.815Z,6.07
2018-02-23T00:30:50.261Z,6.07
2018-02-23T00:33:16.606Z,6.12
2018-02-23T00:35:43.119Z,6.21
2018-02-23T00:38:09.481Z,6.14
2018-02-23T00:40:35.909Z,6.17
2018-02-23T00:43:02.415Z,6.14
2018-02-23T00:45:28.837Z,6.23
2018-02-23T00:47:55.619Z,6.23
2018-02-23T00:50:22.189Z,6.20
2018-02-23T00:52:48.897Z,6.12
2018-02-23T00:55:15.309Z,6.11
2018-02-23T00:57:41.770Z,6.15
2018-02-23T01:00:08.290Z,6.13
2018-02-23T01:02:34.838Z,5.98
2018-02-23T01:05:01.250Z,6.03
2018-02-23T01:07:27.653Z,5.60
2018-02-23T01:09:54.127Z,5.74
2018-02-23T01:12:20.518Z,5.87
2018-02-23T01:14:47.074Z,5.98
2018-02-23T01:17:13.521Z,6.07
2018-02-23T01:19:39.898Z,5.85
2018-02-23T01:22:06.297Z,5.74
2018-02-23T01:24:32.754Z,5.78
2018-02-23T01:26:59.163Z,5.80
2018-02-23T01:29:25.549Z,5.76
2018-02-23T01:31:52.018Z,5.89
2018-02-23T01:34:18.395Z,5.86
2018-02-23T01:36:44.841Z,5.57
2018-02-23T01:39:11.233Z,5.74
2018-02-23T01:41:37.685Z,5.66
2018-02-23T01:44:04.122Z,5.89
2018-02-23T01:46:30.537Z,6.00
2018-02-23T01:48:56.910Z,5.91
2018-02-23T01:51:23.305Z,6.02
2018-02-23T01:53:49.720Z,6.09
2018-02-23T01:56:16.194Z,5.88
2018-02-23T01:58:42.641Z,5.55
2018-02-23T02:01:09.070Z,5.72
2018-02-23T02:03:35.446Z,5.47
2018-02-23T02:06:01.865Z,5.69
2018-02-23T02:08:28.286Z,5.83
2018-02-23T02:10:54.776Z,5.87
2018-02-23T02:13:21.217Z,5.66
2018-02-23T02:15:47.800Z,5.92
2018-02-23T02:18:14.173Z,5.95
2018-02-23T02:20:40.624Z,5.91
2018-02-23T02:23:07.143Z,5.96
2018-02-23T02:25:33.513Z,5.91
2018-02-23T02:27:59.906Z,5.94
2018-02-23T02:30:26.354Z,5.68
2018-02-23T02:32:52.733Z,5.87
2018-02-23T02:35:19.194Z,6.08
2018-02-23T02:37:45.655Z,6.11
2018-02-23T02:40:12.040Z,6.12
2018-02-23T02:42:38.451Z,6.14
2018-02-23T02:45:05.034Z,6.14
2018-02-23T02:47:31.448Z,6.05
2018-02-23T02:49:57.851Z,6.15
2018-02-23T02:52:24.321Z,6.08
2018-02-23T02:54:50.773Z,5.89
2018-02-23T02:57:17.163Z,5.97
2018-02-23T02:59:43.602Z,5.93
2018-02-23T03:02:09.965Z,6.02
2018-02-23T03:04:36.419Z,5.86
2018-02-23T03:07:02.871Z,5.89
2018-02-23T03:09:29.249Z,5.94
2018-02-23T03:11:55.697Z,6.02
2018-02-23T03:14:22.129Z,6.08
2018-02-23T03:16:48.794Z,6.14
2018-02-23T03:19:15.210Z,5.85
2018-02-23T03:21:41.656Z,5.64
2018-02-23T03:24:08.046Z,5.79
2018-02-23T03:26:34.429Z,5.78
2018-02-23T03:29:00.877Z,5.82
2018-02-23T03:31:27.285Z,5.75
2018-02-23T03:33:53.723Z,5.80
2018-02-23T03:36:20.138Z,5.77
2018-02-23T03:38:46.618Z,5.91
2018-02-23T03:41:13.026Z,5.98
2018-02-23T03:43:39.469Z,5.99
2018-02-23T03:46:05.887Z,6.04
2018-02-23T03:48:32.310Z,6.11
2018-02-23T03:50:58.702Z,6.07
2018-02-23T03:53:25.211Z,6.05
2018-02-23T03:55:51.632Z,5.88
2018-02-23T03:58:18.133Z,5.81
2018-02-23T04:00:44.558Z,6.02
2018-02-23T04:03:10.920Z,6.00
2018-02-23T04:05:37.335Z,5.84
2018-02-23T04:08:03.744Z,5.98
2018-02-23T04:10:30.213Z,6.03
2018-02-23T04:12:56.674Z,6.03
2018-02-23T04:15:23.085Z,5.98
2018-02-23T04:17:49.750Z,6.09
2018-02-23T04:20:16.089Z,6.15
2018-02-23T04:22:42.482Z,6.15
2018-02-23T04:25:08.897Z,6.18
2018-02-23T04:27:35.454Z,6.24
2018-02-23T04:30:02.049Z,6.27
2018-02-23T04:32:28.493Z,6.26
2018-02-23T04:34:54.845Z,6.35
2018-02-23T04:37:21.340Z,6.32
2018-02-23T04:39:47.777Z,6.17
2018-02-23T04:42:14.134Z,6.23
2018-02-23T04:44:40.588Z,6.06
2018-02-23T04:47:07.029Z,6.00
2018-02-23T04:49:33.457Z,5.93
2018-02-23T04:51:59.920Z,6.11
2018-02-23T04:54:26.342Z,5.82
2018-02-23T04:56:52.704Z,6.02
2018-02-23T04:59:19.150Z,5.76
2018-02-23T05:01:45.556Z,5.89
2018-02-23T05:04:11.989Z,5.99
2018-02-23T05:06:38.437Z,5.86
2018-02-23T05:09:04.874Z,5.90
2018-02-23T05:11:31.289Z,5.89
2018-02-23T05:13:57.773Z,5.88
2018-02-23T05:16:24.166Z,5.96
2018-02-23T05:18:50.684Z,5.75
2018-02-23T05:21:17.217Z,5.74
2018-02-23T05:23:43.631Z,5.89
2018-02-23T05:26:10.110Z,5.97
2018-02-23T05:28:36.573Z,5.93
2018-02-23T05:31:03.064Z,5.99
2018-02-23T05:33:29.442Z,5.96
2018-02-23T05:35:55.881Z,5.95
2018-02-23T05:38:24.273Z,5.95
2018-02-23T05:40:50.653Z,6.14
2018-02-23T05:43:17.066Z,6.19
2018-02-23T05:45:43.709Z,6.09
2018-02-23T05:48:10.084Z,6.17
2018-02-23T05:50:36.489Z,6.21
2018-02-23T05:53:02.895Z,6.18
2018-02-23T05:55:29.312Z,6.10
2018-02-23T05:57:55.666Z,6.21
2018-02-23T06:00:22.209Z,6.26
2018-02-23T06:02:48.654Z,6.19
2018-02-23T06:05:15.103Z,6.15
2018-02-23T06:07:41.477Z,5.86
2018-02-23T06:10:16.497Z,5.78
2018-02-23T06:12:42.993Z,5.76
2018-02-23T06:15:09.362Z,5.88
2018-02-23T06:17:44.033Z,5.64
2018-02-23T06:20:22.681Z,5.57
2018-02-23T06:22:49.181Z,5.59
2018-02-23T06:25:17.337Z,5.36
2018-02-23T06:27:47.137Z,5.75
2018-02-23T06:30:14.801Z,5.92
2018-02-23T06:32:41.370Z,6.04
2018-02-23T06:35:10.932Z,6.05
2018-02-23T06:40:25.082Z,6.13
2018-02-23T06:42:51.573Z,6.25
2018-02-23T06:45:18.109Z,6.25
2018-02-23T06:47:44.477Z,6.25
2018-02-23T06:50:11.546Z,6.36
2018-02-23T06:52:38.134Z,6.38
2018-02-23T06:55:04.584Z,6.23
2018-02-23T06:57:31.125Z,6.17
2018-02-23T06:59:57.573Z,6.32
2018-02-23T07:02:24.051Z,6.20
2018-02-23T07:04:50.473Z,6.30
2018-02-23T07:07:17.579Z,6.28
2018-02-23T07:09:44.102Z,6.18
2018-02-23T07:12:10.584Z,6.31
2018-02-23T07:14:37.075Z,6.32
2018-02-23T07:17:08.226Z,6.41
2018-02-23T07:19:38.964Z,6.37
2018-02-23T07:22:12.940Z,6.40
2018-02-23T07:24:54.537Z,6.36
2018-02-23T07:27:22.890Z,6.13
2018-02-23T07:29:50.603Z,6.25
2018-02-23T07:32:17.018Z,6.10
2018-02-23T07:34:43.432Z,6.26
2018-02-23T07:37:11.529Z,6.21
2018-02-23T07:39:39.404Z,6.24
2018-02-23T07:42:05.886Z,6.09
2018-02-23T07:44:32.312Z,6.11
2018-02-23T07:46:58.777Z,6.21
2018-02-23T07:49:25.269Z,5.99
2018-02-23T07:51:51.709Z,6.19
2018-02-23T07:54:18.173Z,6.05
2018-02-23T07:56:44.972Z,6.18
2018-02-23T07:59:14.663Z,6.30
2018-02-23T08:01:45.335Z,6.37
2018-02-23T08:04:11.790Z,6.45
2018-02-23T08:06:40.549Z,6.30
2018-02-23T08:09:07.910Z,6.30
2018-02-23T08:11:35.854Z,6.28
2018-02-23T08:14:02.494Z,6.29
2018-02-23T08:16:29.063Z,6.41
2018-02-23T08:18:55.513Z,6.24
2018-02-23T08:21:22.177Z,6.07
2018-02-23T08:23:48.566Z,6.03
2018-02-23T08:26:15.097Z,6.20
2018-02-23T08:28:41.578Z,6.36
2018-02-23T08:31:08.070Z,6.21
2018-02-23T08:33:34.597Z,6.40
2018-02-23T08:36:01.000Z,6.53
2018-02-23T08:38:27.422Z,6.40
2018-02-23T08:40:53.865Z,6.14
2018-02-23T08:43:20.669Z,6.52
2018-02-23T08:45:47.039Z,6.60
2018-02-23T08:48:13.553Z,6.66
2018-02-23T08:50:40.064Z,6.68
2018-02-23T08:53:06.582Z,6.59
2018-02-23T08:55:32.955Z,6.42
2018-02-23T08:57:59.409Z,6.39
2018-02-23T09:00:28.173Z,6.19
2018-02-23T09:02:55.416Z,6.19
2018-02-23T09:05:21.885Z,6.35
2018-02-23T09:07:48.362Z,6.45
2018-02-23T09:10:14.733Z,6.57
2018-02-23T09:12:41.419Z,6.58
2018-02-23T09:15:09.274Z,6.68
2018-02-23T09:17:37.019Z,6.78
2018-02-23T09:20:05.354Z,6.82
2018-02-23T09:22:31.914Z,6.64
2018-02-23T09:24:58.449Z,6.79
2018-02-23T09:27:24.889Z,6.89
2018-02-23T09:29:51.268Z,6.77
2018-02-23T09:32:30.070Z,6.75
2018-02-23T09:34:56.510Z,6.66
2018-02-23T09:37:22.990Z,6.81
2018-02-23T09:39:49.462Z,6.86
2018-02-23T09:42:15.872Z,6.71
2018-02-23T09:44:42.262Z,6.64
2018-02-23T09:47:08.769Z,6.76
2018-02-23T09:49:35.128Z,6.84
2018-02-23T09:52:01.545Z,6.85
2018-02-23T09:54:28.002Z,6.87
2018-02-23T09:56:54.403Z,6.93
2018-02-23T09:59:21.315Z,6.89
2018-02-23T10:01:47.716Z,6.92
2018-02-23T10:04:16.198Z,6.90
2018-02-23T10:06:42.590Z,6.87
2018-02-23T10:09:09.212Z,6.92
2018-02-23T10:11:36.014Z,6.99
2018-02-23T10:14:02.486Z,7.08
2018-02-23T10:16:28.993Z,6.90
2018-02-23T10:18:55.486Z,6.98
2018-02-23T10:21:21.949Z,7.07
2018-02-23T10:23:48.446Z,7.16
2018-02-23T10:26:14.801Z,7.22
2018-02-23T10:28:41.378Z,7.32
2018-02-23T10:31:14.858Z,7.28
2018-02-23T10:33:41.289Z,6.94
2018-02-23T10:36:07.820Z,6.78
2018-02-23T10:38:34.337Z,7.00
2018-02-23T10:41:00.749Z,7.16
2018-02-23T10:43:29.131Z,7.31
2018-02-23T10:45:57.173Z,7.22
2018-02-23T10:48:27.819Z,7.40
2018-02-23T10:50:54.386Z,7.43
2018-02-23T10:53:20.774Z,7.33
2018-02-23T10:55:47.186Z,7.42
2018-02-23T10:58:13.649Z,7.42
2018-02-23T11:00:40.095Z,7.25
2018-02-23T11:03:06.539Z,7.36
2018-02-23T11:05:32.965Z,7.36
2018-02-23T11:07:59.444Z,7.61
2018-02-23T11:10:25.970Z,7.53
2018-02-23T11:12:52.345Z,7.35
2018-02-23T11:15:18.823Z,7.47
2018-02-23T11:17:45.352Z,7.57
2018-02-23T11:20:14.640Z,7.53
2018-02-23T11:22:45.372Z,7.51
2018-02-23T11:25:12.778Z,7.51
2018-02-23T11:27:39.200Z,7.58
2018-02-23T11:30:05.783Z,7.43
2018-02-23T11:32:32.204Z,7.54
2018-02-23T11:34:58.818Z,7.35
2018-02-23T11:37:27.279Z,7.52
2018-02-23T11:39:53.651Z,7.51
2018-02-23T11:42:20.142Z,7.50
2018-02-23T11:44:46.683Z,7.56
2018-02-23T11:47:13.217Z,7.72
2018-02-23T11:49:39.878Z,7.88
2018-02-23T11:52:06.429Z,7.93
2018-02-23T11:54:32.817Z,7.96
2018-02-23T11:56:59.377Z,7.82
2018-02-23T11:59:25.891Z,7.72
2018-02-23T12:01:52.286Z,7.61
2018-02-23T12:04:18.628Z,7.69
2018-02-23T12:06:45.146Z,7.73
2018-02-23T12:09:11.602Z,7.75
2018-02-23T12:11:38.165Z,7.68
2018-02-23T12:14:07.075Z,7.66
2018-02-23T12:16:36.885Z,7.67
2018-02-23T12:19:03.667Z,7.64
2018-02-23T12:21:33.023Z,7.56
2018-02-23T12:23:59.414Z,7.63
2018-02-23T12:26:27.006Z,7.48
2018-02-23T12:28:53.501Z,7.11
2018-02-23T12:31:19.885Z,7.40
2018-02-23T12:33:46.410Z,7.19
2018-02-23T12:36:12.950Z,7.34
2018-02-23T12:38:39.392Z,7.44
2018-02-23T12:41:05.765Z,7.65
2018-02-23T12:43:32.223Z,7.68
2018-02-23T12:45:58.694Z,7.50
2018-02-23T12:48:25.046Z,7.21
2018-02-23T12:50:51.544Z,7.04
2018-02-23T12:53:18.014Z,6.94
2018-02-23T12:55:44.434Z,7.12
2018-02-23T12:58:11.089Z,7.33
2018-02-23T13:00:37.461Z,7.34
2018-02-23T13:03:03.925Z,7.42
2018-02-23T13:05:30.430Z,7.58
2018-02-23T13:07:57.034Z,7.60
2018-02-23T13:10:23.499Z,7.52
2018-02-23T13:12:49.974Z,7.53
2018-02-23T13:15:18.364Z,7.44
2018-02-23T13:17:46.550Z,7.55
2018-02-23T13:20:13.098Z,7.57
2018-02-23T13:22:39.714Z,7.51
2018-02-23T13:25:06.162Z,7.62
2018-02-23T13:27:32.688Z,7.36
2018-02-23T13:29:59.202Z,7.56
2018-02-23T13:32:25.693Z,7.62
2018-02-23T13:34:52.066Z,7.39
2018-02-23T13:37:18.485Z,7.40
2018-02-23T13:39:50.937Z,7.53
2018-02-23T13:42:17.438Z,7.51
2018-02-23T13:44:43.862Z,7.43
2018-02-23T13:47:10.393Z,7.61
2018-02-23T13:49:36.753Z,7.55
2018-02-23T13:52:03.297Z,7.54
2018-02-23T13:54:30.961Z,7.48
2018-02-23T13:56:57.537Z,7.42
2018-02-23T13:59:24.009Z,7.43
2018-02-23T14:01:50.545Z,7.37
2018-02-23T14:04:17.164Z,7.49
2018-02-23T14:06:47.576Z,7.44
2018-02-23T14:09:15.075Z,7.29
2018-02-23T14:11:41.759Z,7.36
2018-02-23T14:14:08.213Z,7.30
2018-02-23T14:16:34.706Z,7.43
2018-02-23T14:19:01.153Z,7.28
2018-02-23T14:21:27.526Z,7.35
2018-02-23T14:23:53.925Z,7.35
2018-02-23T14:26:20.353Z,7.51
2018-02-23T14:28:46.730Z,7.61
2018-02-23T14:31:13.146Z,7.61
2018-02-23T14:33:39.654Z,7.40
2018-02-23T14:36:06.190Z,7.26
2018-02-23T14:38:39.543Z,7.16
2018-02-23T14:41:06.154Z,7.33
2018-02-23T14:43:33.637Z,7.21
2018-02-23T14:46:00.206Z,7.21
2018-02-23T14:48:38.778Z,7.08
2018-02-23T14:51:10.345Z,7.07
2018-02-23T14:53:36.755Z,7.01
2018-02-23T14:56:03.255Z,7.24
2018-02-23T14:58:29.723Z,7.06
2018-02-23T15:00:56.204Z,7.21
2018-02-23T15:03:22.725Z,7.33
2018-02-23T15:05:49.275Z,6.91
2018-02-23T15:08:15.773Z,7.18
2018-02-23T15:10:42.142Z,7.46
2018-02-23T15:13:08.621Z,7.35
2018-02-23T15:15:35.029Z,7.46
2018-02-23T15:18:01.454Z,7.51
2018-02-23T15:20:27.886Z,7.53
2018-02-23T15:22:54.382Z,7.45
2018-02-23T15:25:20.893Z,7.37
2018-02-23T15:27:47.650Z,7.39
2018-02-23T15:30:26.333Z,7.30
2018-02-23T15:32:52.649Z,7.51
2018-02-23T15:35:19.430Z,7.43
2018-02-23T15:37:46.214Z,7.42
2018-02-23T15:40:12.834Z,7.32
2018-02-23T15:42:39.407Z,7.10
2018-02-23T15:45:05.894Z,7.31
2018-02-23T15:47:37.111Z,7.16
2018-02-23T16:03:20.482Z,7.09
2018-02-23T16:05:46.999Z,7.27
2018-02-23T16:08:13.585Z,7.23
2018-02-23T16:10:40.068Z,7.14
2018-02-23T16:13:06.705Z,7.14
2018-02-23T16:15:33.070Z,7.15
2018-02-23T16:17:59.509Z,7.09
2018-02-23T16:20:26.036Z,7.02
2018-02-23T16:22:52.430Z,6.97
2018-02-23T16:25:18.797Z,7.15
2018-02-23T16:27:45.468Z,7.11
2018-02-23T16:30:11.841Z,7.19
2018-02-23T16:32:38.318Z,6.87
2018-02-23T16:35:04.741Z,6.83
2018-02-23T16:37:31.189Z,6.90
2018-02-23T16:39:57.616Z,6.91
2018-02-23T16:42:24.109Z,7.21
2018-02-23T16:44:50.551Z,6.84
2018-02-23T16:47:17.020Z,6.92
2018-02-23T16:49:43.468Z,6.72
2018-02-23T16:52:09.902Z,6.81
2018-02-23T16:54:36.441Z,7.08
2018-02-23T16:57:02.918Z,6.92
2018-02-23T16:59:29.255Z,6.92
2018-02-23T17:01:55.682Z,6.77
2018-02-23T17:04:22.192Z,6.76
2018-02-23T17:06:48.682Z,6.97
2018-02-23T17:09:15.281Z,7.09
2018-02-23T17:11:41.720Z,6.92
2018-02-23T17:14:08.086Z,7.01
2018-02-23T17:16:34.510Z,7.09
2018-02-23T17:19:00.985Z,7.08
2018-02-23T17:21:27.362Z,6.88
2018-02-23T17:23:53.880Z,6.90
2018-02-23T17:26:20.333Z,6.73
2018-02-23T17:28:46.706Z,6.73
2018-02-23T17:31:13.110Z,6.65
2018-02-23T17:33:39.698Z,6.85
2018-02-23T17:36:06.101Z,6.81
2018-02-23T17:38:32.534Z,6.80
2018-02-23T17:40:59.078Z,6.82
2018-02-23T17:43:25.530Z,6.98
2018-02-23T17:45:51.997Z,7.03
2018-02-23T17:48:18.408Z,7.05
2018-02-23T17:50:44.877Z,7.07
2018-02-23T17:53:11.351Z,7.12
2018-02-23T17:55:37.782Z,6.97
2018-02-23T17:58:04.333Z,7.01
2018-02-23T18:00:30.810Z,7.09
2018-02-23T18:02:57.365Z,6.95
2018-02-23T18:05:23.735Z,6.74
2018-02-23T18:07:50.214Z,6.85
2018-02-23T18:10:16.715Z,6.95
2018-02-23T18:12:43.142Z,6.96
2018-02-23T18:15:09.573Z,7.04
2018-02-23T18:17:35.975Z,6.68
2018-02-23T18:20:02.507Z,6.76
2018-02-23T18:22:28.941Z,6.89
2018-02-23T18:24:55.367Z,6.99
2018-02-23T18:27:21.741Z,6.90
2018-02-23T18:29:48.229Z,7.01
2018-02-23T18:32:14.705Z,7.05
2018-02-23T18:34:41.070Z,7.01
2018-02-23T18:37:07.508Z,6.91
2018-02-23T18:39:34.027Z,6.96
2018-02-23T18:42:00.426Z,6.92
2018-02-23T18:44:26.905Z,6.93
2018-02-23T18:46:53.350Z,6.96
2018-02-23T18:49:19.774Z,6.92
2018-02-23T18:51:46.306Z,7.03
2018-02-23T18:54:12.729Z,6.94
2018-02-23T18:56:39.424Z,6.69
2018-02-23T18:59:05.882Z,6.90
2018-02-23T19:01:32.517Z,6.79
2018-02-23T19:03:59.344Z,6.87
2018-02-23T19:06:25.878Z,6.91
2018-02-23T19:08:52.397Z,7.01
2018-02-23T19:11:18.895Z,6.89
2018-02-23T19:13:45.505Z,6.89
2018-02-23T19:16:11.978Z,6.88
2018-02-23T19:18:38.380Z,6.58
2018-02-23T19:21:04.962Z,6.75
2018-02-23T19:23:31.545Z,6.87
2018-02-23T19:25:58.120Z,6.98
2018-02-23T19:28:24.698Z,7.06
2018-02-23T19:30:51.201Z,7.03
2018-02-23T19:33:17.589Z,7.07
2018-02-23T19:35:44.042Z,7.05
2018-02-23T19:38:10.564Z,7.07
2018-02-23T19:40:36.974Z,7.10
2018-02-23T19:43:03.443Z,6.92
2018-02-23T19:45:29.854Z,6.88
2018-02-23T19:47:56.374Z,7.02
2018-02-23T19:50:22.783Z,7.10
2018-02-23T19:52:49.245Z,7.13
2018-02-23T19:55:15.634Z,7.16
2018-02-23T19:57:42.053Z,7.10
2018-02-23T20:00:08.580Z,7.13
2018-02-23T20:02:35.116Z,7.02
2018-02-23T20:05:01.521Z,6.97
2018-02-23T20:07:28.009Z,6.95
2018-02-23T20:09:54.474Z,6.97
2018-02-23T20:12:20.848Z,6.89
2018-02-23T20:14:47.244Z,6.91
2018-02-23T20:17:13.650Z,6.90
2018-02-23T20:19:40.071Z,6.73
2018-02-23T20:22:06.534Z,6.90
2018-02-23T20:24:33.093Z,6.87
2018-02-23T20:26:59.630Z,6.94
2018-02-23T20:29:26.004Z,6.84
2018-02-23T20:31:52.344Z,6.87
2018-02-23T20:34:18.765Z,6.73
2018-02-23T20:36:45.160Z,6.70
2018-02-23T20:39:11.585Z,6.66
2018-02-23T20:41:37.933Z,6.79
2018-02-23T20:44:04.437Z,6.79
2018-02-23T20:46:30.900Z,6.74
2018-02-23T20:48:57.289Z,6.69
2018-02-23T20:51:23.861Z,6.68
2018-02-23T20:53:50.310Z,6.66
2018-02-23T20:56:16.669Z,6.63
2018-02-23T20:58:43.055Z,6.70
2018-02-23T21:01:09.481Z,6.74
2018-02-23T21:03:35.922Z,6.84
2018-02-23T21:06:02.326Z,6.91
2018-02-23T21:08:28.789Z,6.96
2018-02-23T21:10:55.285Z,6.92
2018-02-23T21:13:21.720Z,6.88
2018-02-23T21:15:48.193Z,6.85
2018-02-23T21:18:14.569Z,6.86
2018-02-23T21:20:41.006Z,6.85
2018-02-23T21:23:07.538Z,6.83
2018-02-23T21:25:34.028Z,6.92
2018-02-23T21:28:00.421Z,6.97
2018-02-23T21:30:26.870Z,6.95
2018-02-23T21:32:53.350Z,6.94
2018-02-23T21:35:19.787Z,6.92
2018-02-23T21:37:46.206Z,6.80
2018-02-23T21:40:12.602Z,6.84
2018-02-23T21:42:39.174Z,6.94
2018-02-23T21:45:05.637Z,6.90
2018-02-23T21:47:32.117Z,6.93
2018-02-23T21:49:58.590Z,7.02
2018-02-23T21:52:24.998Z,7.08
2018-02-23T21:54:51.614Z,7.09
2018-02-23T21:57:18.034Z,7.14
2018-02-23T21:59:44.509Z,7.13
2018-02-23T22:02:10.990Z,7.11
2018-02-23T22:04:37.469Z,7.07
2018-02-23T22:07:04.027Z,7.12
2018-02-23T22:09:30.541Z,7.14
2018-02-23T22:11:57.010Z,7.17
2018-02-23T22:14:23.422Z,7.12
2018-02-23T22:16:49.874Z,7.15
2018-02-23T22:19:16.341Z,7.17
2018-02-23T22:21:42.893Z,7.17
2018-02-23T22:24:09.453Z,7.19
2018-02-23T22:26:35.965Z,7.13
2018-02-23T22:29:02.421Z,7.16
2018-02-23T22:31:28.889Z,7.14
2018-02-23T22:33:55.345Z,7.07
2018-02-23T22:36:21.757Z,7.05
2018-02-23T22:38:48.138Z,6.99
2018-02-23T22:41:14.562Z,6.96
2018-02-23T22:43:40.927Z,6.94
2018-02-23T22:46:07.395Z,6.88
2018-02-23T22:48:33.994Z,6.97
2018-02-23T22:51:00.343Z,7.01
2018-02-23T22:53:26.857Z,7.01
2018-02-23T22:55:53.313Z,7.01
2018-02-23T22:58:19.682Z,7.04
2018-02-23T23:00:46.130Z,7.00
2018-02-23T23:03:12.481Z,7.05
2018-02-23T23:05:38.881Z,7.04
2018-02-23T23:08:05.417Z,7.09
2018-02-23T23:10:31.865Z,6.98
2018-02-23T23:12:58.290Z,7.03
2018-02-23T23:15:24.731Z,6.87
2018-02-23T23:17:51.142Z,6.82
2018-02-23T23:20:17.555Z,6.81
2018-02-23T23:22:44.014Z,6.85
2018-02-23T23:25:10.445Z,6.88
2018-02-23T23:27:36.869Z,6.75
2018-02-23T23:30:03.347Z,6.87
2018-02-23T23:32:29.846Z,6.90
2018-02-23T23:34:56.304Z,6.85
2018-02-23T23:37:22.678Z,6.91
2018-02-23T23:39:49.114Z,6.94
2018-02-23T23:42:15.569Z,6.97
2018-02-23T23:44:41.976Z,6.97
2018-02-23T23:47:08.445Z,6.94
2018-02-23T23:49:34.842Z,6.96
2018-02-23T23:52:01.210Z,6.94
2018-02-23T23:54:27.586Z,6.96
2018-02-23T23:56:54.146Z,6.97
2018-02-23T23:59:20.504Z,6.82
